sensor_id;sensor_type;location;lat;lon;timestamp;P1;durP1;ratioP1;P2;durP2;ratioP2
5042;SDS011;2540;50.928;6.856;2024-01-15T00:00:32;48.47;;;17.13;;
5042;SDS011;2540;50.928;6.856;2024-01-15T00:02:58;42.63;;;16.67;;
5042;SDS011;2540;50.928;6.856;2024-01-15T00:05:23;43.40;;;15.83;;
5042;SDS011;2540;50.928;6.856;2024-01-15T00:07:48;49.83;;;16.10;;
5042;SDS011;2540;50.928;6.856;2024-01-15T00:10:14;40.70;;;16.43;;
5042;SDS011;2540;50.928;6.856;2024-01-15T00:12:39;41.43;;;17.47;;
5042;SDS011;2540;50.928;6.856;2024-01-15T00:15:05;37.23;;;15.27;;
5042;SDS011;2540;50.928;6.856;2024-01-15T00:17:30;42.60;;;16.90;;
5042;SDS011;2540;50.928;6.856;2024-01-15T00:19:56;37.50;;;16.60;;
5042;SDS011;2540;50.928;6.856;2024-01-15T00:22:21;44.53;;;17.13;;
5042;SDS011;2540;50.928;6.856;2024-01-15T00:24:46;44.80;;;16.67;;
5042;SDS011;2540;50.928;6.856;2024-01-15T00:27:12;43.03;;;16.00;;
5042;SDS011;2540;50.928;6.856;2024-01-15T00:29:37;43.27;;;17.60;;
5042;SDS011;2540;50.928;6.856;2024-01-15T00:32:03;50.30;;;18.60;;
5042;SDS011;2540;50.928;6.856;2024-01-15T00:34:28;42.23;;;17.87;;
5042;SDS011;2540;50.928;6.856;2024-01-15T00:36:53;45.80;;;17.30;;
5042;SDS011;2540;50.928;6.856;2024-01-15T00:39:19;46.97;;;17.00;;
5042;SDS011;2540;50.928;6.856;2024-01-15T00:41:44;51.87;;;18.47;;
5042;SDS011;2540;50.928;6.856;2024-01-15T00:44:09;45.90;;;19.10;;
5042;SDS011;2540;50.928;6.856;2024-01-15T00:46:42;47.57;;;19.10;;
5042;SDS011;2540;50.928;6.856;2024-01-15T00:49:11;50.17;;;19.30;;
5042;SDS011;2540;50.928;6.856;2024-01-15T00:51:37;48.83;;;18.87;;
5042;SDS011;2540;50.928;6.856;2024-01-15T00:54:02;53.33;;;18.10;;
5042;SDS011;2540;50.928;6.856;2024-01-15T00:56:27;49.47;;;19.10;;
5042;SDS011;2540;50.928;6.856;2024-01-15T00:58:53;49.60;;;18.63;;
5042;SDS011;2540;50.928;6.856;2024-01-15T01:01:18;46.23;;;19.10;;
5042;SDS011;2540;50.928;6.856;2024-01-15T01:03:43;46.97;;;18.00;;
5042;SDS011;2540;50.928;6.856;2024-01-15T01:06:09;52.40;;;19.77;;
5042;SDS011;2540;50.928;6.856;2024-01-15T01:08:34;45.70;;;19.07;;
5042;SDS011;2540;50.928;6.856;2024-01-15T01:10:59;48.90;;;17.70;;
5042;SDS011;2540;50.928;6.856;2024-01-15T01:13:25;48.60;;;18.13;;
5042;SDS011;2540;50.928;6.856;2024-01-15T01:15:50;47.67;;;18.30;;
5042;SDS011;2540;50.928;6.856;2024-01-15T01:18:16;52.33;;;17.47;;
5042;SDS011;2540;50.928;6.856;2024-01-15T01:20:41;50.17;;;18.30;;
5042;SDS011;2540;50.928;6.856;2024-01-15T01:23:06;49.10;;;18.10;;
5042;SDS011;2540;50.928;6.856;2024-01-15T01:25:32;52.37;;;18.67;;
5042;SDS011;2540;50.928;6.856;2024-01-15T01:27:57;45.97;;;18.30;;
5042;SDS011;2540;50.928;6.856;2024-01-15T01:30:22;51.50;;;18.23;;
5042;SDS011;2540;50.928;6.856;2024-01-15T01:32:48;41.43;;;17.33;;
5042;SDS011;2540;50.928;6.856;2024-01-15T01:35:13;49.03;;;19.00;;
5042;SDS011;2540;50.928;6.856;2024-01-15T01:37:39;47.67;;;18.50;;
5042;SDS011;2540;50.928;6.856;2024-01-15T01:40:05;43.63;;;19.37;;
5042;SDS011;2540;50.928;6.856;2024-01-15T01:42:30;52.80;;;18.83;;
5042;SDS011;2540;50.928;6.856;2024-01-15T01:44:55;49.30;;;18.80;;
5042;SDS011;2540;50.928;6.856;2024-01-15T01:47:21;59.27;;;20.10;;
5042;SDS011;2540;50.928;6.856;2024-01-15T01:49:46;61.20;;;20.13;;
5042;SDS011;2540;50.928;6.856;2024-01-15T01:52:12;50.43;;;19.03;;
5042;SDS011;2540;50.928;6.856;2024-01-15T01:54:37;46.03;;;19.13;;
5042;SDS011;2540;50.928;6.856;2024-01-15T01:57:03;53.10;;;20.47;;
5042;SDS011;2540;50.928;6.856;2024-01-15T01:59:30;51.50;;;19.47;;
5042;SDS011;2540;50.928;6.856;2024-01-15T02:01:55;61.83;;;20.60;;
5042;SDS011;2540;50.928;6.856;2024-01-15T02:04:22;57.47;;;21.77;;
5042;SDS011;2540;50.928;6.856;2024-01-15T02:06:49;56.50;;;21.13;;
5042;SDS011;2540;50.928;6.856;2024-01-15T02:09:15;48.97;;;18.37;;
5042;SDS011;2540;50.928;6.856;2024-01-15T02:11:43;49.40;;;21.97;;
5042;SDS011;2540;50.928;6.856;2024-01-15T02:14:11;51.43;;;19.67;;
5042;SDS011;2540;50.928;6.856;2024-01-15T02:16:36;62.87;;;20.20;;
5042;SDS011;2540;50.928;6.856;2024-01-15T02:19:02;58.67;;;20.10;;
5042;SDS011;2540;50.928;6.856;2024-01-15T02:21:27;57.30;;;20.70;;
5042;SDS011;2540;50.928;6.856;2024-01-15T02:23:54;69.40;;;20.80;;
5042;SDS011;2540;50.928;6.856;2024-01-15T02:26:19;46.90;;;16.80;;
5042;SDS011;2540;50.928;6.856;2024-01-15T02:28:45;49.30;;;19.80;;
5042;SDS011;2540;50.928;6.856;2024-01-15T02:31:10;55.97;;;20.17;;
5042;SDS011;2540;50.928;6.856;2024-01-15T02:33:36;54.57;;;18.33;;
5042;SDS011;2540;50.928;6.856;2024-01-15T02:36:01;51.50;;;17.90;;
5042;SDS011;2540;50.928;6.856;2024-01-15T02:38:27;58.80;;;20.37;;
5042;SDS011;2540;50.928;6.856;2024-01-15T02:40:52;61.07;;;20.10;;
5042;SDS011;2540;50.928;6.856;2024-01-15T02:43:18;50.00;;;18.73;;
5042;SDS011;2540;50.928;6.856;2024-01-15T02:45:44;53.37;;;19.93;;
5042;SDS011;2540;50.928;6.856;2024-01-15T02:48:09;55.30;;;19.00;;
5042;SDS011;2540;50.928;6.856;2024-01-15T02:50:35;55.50;;;20.83;;
5042;SDS011;2540;50.928;6.856;2024-01-15T02:53:00;51.80;;;19.67;;
5042;SDS011;2540;50.928;6.856;2024-01-15T02:55:25;45.63;;;16.30;;
5042;SDS011;2540;50.928;6.856;2024-01-15T02:57:51;51.40;;;17.63;;
5042;SDS011;2540;50.928;6.856;2024-01-15T03:00:16;51.33;;;16.77;;
5042;SDS011;2540;50.928;6.856;2024-01-15T03:02:44;44.80;;;17.47;;
5042;SDS011;2540;50.928;6.856;2024-01-15T03:05:10;51.23;;;18.90;;
5042;SDS011;2540;50.928;6.856;2024-01-15T03:07:35;51.07;;;17.80;;
5042;SDS011;2540;50.928;6.856;2024-01-15T03:10:01;39.03;;;16.40;;
5042;SDS011;2540;50.928;6.856;2024-01-15T03:12:26;41.40;;;17.83;;
5042;SDS011;2540;50.928;6.856;2024-01-15T03:14:52;38.53;;;16.67;;
5042;SDS011;2540;50.928;6.856;2024-01-15T03:17:17;41.00;;;15.33;;
5042;SDS011;2540;50.928;6.856;2024-01-15T03:19:42;43.90;;;18.17;;
5042;SDS011;2540;50.928;6.856;2024-01-15T03:22:08;46.30;;;17.93;;
5042;SDS011;2540;50.928;6.856;2024-01-15T03:24:33;43.43;;;18.30;;
5042;SDS011;2540;50.928;6.856;2024-01-15T03:26:59;43.03;;;18.80;;
5042;SDS011;2540;50.928;6.856;2024-01-15T03:29:25;47.20;;;18.87;;
5042;SDS011;2540;50.928;6.856;2024-01-15T03:31:51;38.57;;;16.63;;
5042;SDS011;2540;50.928;6.856;2024-01-15T03:34:16;45.40;;;18.63;;
5042;SDS011;2540;50.928;6.856;2024-01-15T03:36:42;41.90;;;18.27;;
5042;SDS011;2540;50.928;6.856;2024-01-15T03:39:07;40.00;;;19.43;;
5042;SDS011;2540;50.928;6.856;2024-01-15T03:41:33;47.90;;;18.70;;
5042;SDS011;2540;50.928;6.856;2024-01-15T03:43:58;44.67;;;18.67;;
5042;SDS011;2540;50.928;6.856;2024-01-15T03:46:24;47.13;;;19.87;;
5042;SDS011;2540;50.928;6.856;2024-01-15T03:48:49;44.43;;;19.60;;
5042;SDS011;2540;50.928;6.856;2024-01-15T03:51:15;46.77;;;18.87;;
5042;SDS011;2540;50.928;6.856;2024-01-15T03:53:42;50.87;;;20.10;;
5042;SDS011;2540;50.928;6.856;2024-01-15T03:56:07;50.00;;;20.20;;
5042;SDS011;2540;50.928;6.856;2024-01-15T03:58:32;44.57;;;19.37;;
5042;SDS011;2540;50.928;6.856;2024-01-15T04:00:58;41.33;;;18.03;;
5042;SDS011;2540;50.928;6.856;2024-01-15T04:03:23;55.57;;;19.50;;
5042;SDS011;2540;50.928;6.856;2024-01-15T04:05:48;52.07;;;19.53;;
5042;SDS011;2540;50.928;6.856;2024-01-15T04:08:14;44.60;;;17.13;;
5042;SDS011;2540;50.928;6.856;2024-01-15T04:10:39;49.43;;;17.50;;
5042;SDS011;2540;50.928;6.856;2024-01-15T04:13:04;48.50;;;20.33;;
5042;SDS011;2540;50.928;6.856;2024-01-15T04:15:30;44.97;;;18.33;;
5042;SDS011;2540;50.928;6.856;2024-01-15T04:17:55;44.93;;;16.97;;
5042;SDS011;2540;50.928;6.856;2024-01-15T04:20:20;37.80;;;17.03;;
5042;SDS011;2540;50.928;6.856;2024-01-15T04:22:45;45.30;;;17.40;;
5042;SDS011;2540;50.928;6.856;2024-01-15T04:25:11;36.70;;;16.80;;
5042;SDS011;2540;50.928;6.856;2024-01-15T04:27:36;49.10;;;17.83;;
5042;SDS011;2540;50.928;6.856;2024-01-15T04:30:01;47.77;;;17.30;;
5042;SDS011;2540;50.928;6.856;2024-01-15T04:32:27;36.67;;;15.50;;
5042;SDS011;2540;50.928;6.856;2024-01-15T04:34:53;34.40;;;14.67;;
5042;SDS011;2540;50.928;6.856;2024-01-15T04:37:18;36.77;;;14.73;;
5042;SDS011;2540;50.928;6.856;2024-01-15T04:39:44;34.40;;;14.80;;
5042;SDS011;2540;50.928;6.856;2024-01-15T04:42:09;31.90;;;14.70;;
5042;SDS011;2540;50.928;6.856;2024-01-15T04:44:35;33.30;;;14.47;;
5042;SDS011;2540;50.928;6.856;2024-01-15T04:47:00;40.50;;;15.83;;
5042;SDS011;2540;50.928;6.856;2024-01-15T04:49:25;39.03;;;15.00;;
5042;SDS011;2540;50.928;6.856;2024-01-15T04:51:52;28.37;;;14.20;;
5042;SDS011;2540;50.928;6.856;2024-01-15T04:54:17;29.50;;;13.00;;
5042;SDS011;2540;50.928;6.856;2024-01-15T04:56:43;36.63;;;15.30;;
5042;SDS011;2540;50.928;6.856;2024-01-15T04:59:09;30.67;;;13.27;;
5042;SDS011;2540;50.928;6.856;2024-01-15T05:01:35;36.40;;;14.70;;
5042;SDS011;2540;50.928;6.856;2024-01-15T05:04:00;39.40;;;14.60;;
5042;SDS011;2540;50.928;6.856;2024-01-15T05:06:25;32.23;;;14.23;;
5042;SDS011;2540;50.928;6.856;2024-01-15T05:08:51;30.43;;;14.20;;
5042;SDS011;2540;50.928;6.856;2024-01-15T05:11:16;38.60;;;14.63;;
5042;SDS011;2540;50.928;6.856;2024-01-15T05:13:41;43.50;;;15.67;;
5042;SDS011;2540;50.928;6.856;2024-01-15T05:16:07;32.17;;;13.07;;
5042;SDS011;2540;50.928;6.856;2024-01-15T05:18:32;31.40;;;14.07;;
5042;SDS011;2540;50.928;6.856;2024-01-15T05:20:57;33.10;;;11.97;;
5042;SDS011;2540;50.928;6.856;2024-01-15T05:23:23;27.10;;;12.87;;
5042;SDS011;2540;50.928;6.856;2024-01-15T05:25:48;33.10;;;13.77;;
5042;SDS011;2540;50.928;6.856;2024-01-15T05:28:14;28.47;;;13.40;;
5042;SDS011;2540;50.928;6.856;2024-01-15T05:30:39;27.33;;;12.63;;
5042;SDS011;2540;50.928;6.856;2024-01-15T05:33:04;38.87;;;14.80;;
5042;SDS011;2540;50.928;6.856;2024-01-15T05:35:30;34.60;;;12.23;;
5042;SDS011;2540;50.928;6.856;2024-01-15T05:37:55;25.73;;;13.00;;
5042;SDS011;2540;50.928;6.856;2024-01-15T05:40:21;29.50;;;13.00;;
5042;SDS011;2540;50.928;6.856;2024-01-15T05:42:46;26.30;;;13.40;;
5042;SDS011;2540;50.928;6.856;2024-01-15T05:45:11;30.27;;;12.90;;
5042;SDS011;2540;50.928;6.856;2024-01-15T05:47:36;27.27;;;13.10;;
5042;SDS011;2540;50.928;6.856;2024-01-15T05:50:02;27.63;;;12.33;;
5042;SDS011;2540;50.928;6.856;2024-01-15T05:52:27;24.30;;;11.73;;
5042;SDS011;2540;50.928;6.856;2024-01-15T05:54:53;24.23;;;11.33;;
5042;SDS011;2540;50.928;6.856;2024-01-15T05:57:18;23.90;;;11.30;;
5042;SDS011;2540;50.928;6.856;2024-01-15T05:59:44;23.77;;;11.50;;
5042;SDS011;2540;50.928;6.856;2024-01-15T06:02:09;23.30;;;11.83;;
5042;SDS011;2540;50.928;6.856;2024-01-15T06:04:35;28.20;;;13.07;;
5042;SDS011;2540;50.928;6.856;2024-01-15T06:07:00;26.80;;;12.73;;
5042;SDS011;2540;50.928;6.856;2024-01-15T06:09:26;23.00;;;12.67;;
5042;SDS011;2540;50.928;6.856;2024-01-15T06:11:52;26.50;;;13.37;;
5042;SDS011;2540;50.928;6.856;2024-01-15T06:14:18;25.37;;;12.10;;
5042;SDS011;2540;50.928;6.856;2024-01-15T06:16:43;28.40;;;13.03;;
5042;SDS011;2540;50.928;6.856;2024-01-15T06:19:08;31.50;;;14.00;;
5042;SDS011;2540;50.928;6.856;2024-01-15T06:21:33;29.27;;;15.40;;
5042;SDS011;2540;50.928;6.856;2024-01-15T06:23:59;27.80;;;13.07;;
5042;SDS011;2540;50.928;6.856;2024-01-15T06:26:24;29.87;;;13.70;;
5042;SDS011;2540;50.928;6.856;2024-01-15T06:28:50;35.07;;;13.50;;
5042;SDS011;2540;50.928;6.856;2024-01-15T06:31:15;35.33;;;14.83;;
5042;SDS011;2540;50.928;6.856;2024-01-15T06:33:40;40.83;;;15.00;;
5042;SDS011;2540;50.928;6.856;2024-01-15T06:36:06;32.57;;;14.60;;
5042;SDS011;2540;50.928;6.856;2024-01-15T06:38:31;29.70;;;13.30;;
5042;SDS011;2540;50.928;6.856;2024-01-15T06:40:57;34.00;;;16.37;;
5042;SDS011;2540;50.928;6.856;2024-01-15T06:43:22;36.77;;;15.17;;
5042;SDS011;2540;50.928;6.856;2024-01-15T06:45:47;37.77;;;15.90;;
5042;SDS011;2540;50.928;6.856;2024-01-15T06:48:13;34.87;;;14.97;;
5042;SDS011;2540;50.928;6.856;2024-01-15T06:50:41;32.03;;;14.87;;
5042;SDS011;2540;50.928;6.856;2024-01-15T06:53:06;31.70;;;14.70;;
5042;SDS011;2540;50.928;6.856;2024-01-15T06:55:31;29.87;;;13.93;;
5042;SDS011;2540;50.928;6.856;2024-01-15T06:57:57;37.07;;;16.20;;
5042;SDS011;2540;50.928;6.856;2024-01-15T07:00:22;35.40;;;15.13;;
5042;SDS011;2540;50.928;6.856;2024-01-15T07:02:47;33.53;;;14.00;;
5042;SDS011;2540;50.928;6.856;2024-01-15T07:05:13;30.33;;;14.13;;
5042;SDS011;2540;50.928;6.856;2024-01-15T07:07:38;36.40;;;14.00;;
5042;SDS011;2540;50.928;6.856;2024-01-15T07:10:03;27.57;;;12.33;;
5042;SDS011;2540;50.928;6.856;2024-01-15T07:12:29;29.83;;;13.67;;
5042;SDS011;2540;50.928;6.856;2024-01-15T07:14:55;29.53;;;13.50;;
5042;SDS011;2540;50.928;6.856;2024-01-15T07:17:21;29.67;;;12.80;;
5042;SDS011;2540;50.928;6.856;2024-01-15T07:19:46;27.63;;;13.40;;
5042;SDS011;2540;50.928;6.856;2024-01-15T07:22:12;25.43;;;13.13;;
5042;SDS011;2540;50.928;6.856;2024-01-15T07:24:37;25.40;;;12.07;;
5042;SDS011;2540;50.928;6.856;2024-01-15T07:27:02;28.30;;;12.33;;
5042;SDS011;2540;50.928;6.856;2024-01-15T07:29:29;30.43;;;13.70;;
5042;SDS011;2540;50.928;6.856;2024-01-15T07:31:55;28.10;;;12.57;;
5042;SDS011;2540;50.928;6.856;2024-01-15T07:34:20;30.67;;;12.57;;
5042;SDS011;2540;50.928;6.856;2024-01-15T07:36:46;31.20;;;13.67;;
5042;SDS011;2540;50.928;6.856;2024-01-15T07:39:12;23.83;;;13.50;;
5042;SDS011;2540;50.928;6.856;2024-01-15T07:41:37;33.53;;;14.27;;
5042;SDS011;2540;50.928;6.856;2024-01-15T07:44:02;30.03;;;14.00;;
5042;SDS011;2540;50.928;6.856;2024-01-15T07:46:28;37.50;;;14.20;;
5042;SDS011;2540;50.928;6.856;2024-01-15T07:48:53;27.90;;;13.40;;
5042;SDS011;2540;50.928;6.856;2024-01-15T07:51:22;30.87;;;14.10;;
5042;SDS011;2540;50.928;6.856;2024-01-15T07:53:47;25.73;;;12.97;;
5042;SDS011;2540;50.928;6.856;2024-01-15T07:56:13;28.17;;;14.20;;
5042;SDS011;2540;50.928;6.856;2024-01-15T07:58:38;29.77;;;15.17;;
5042;SDS011;2540;50.928;6.856;2024-01-15T08:01:03;32.83;;;15.80;;
5042;SDS011;2540;50.928;6.856;2024-01-15T08:03:29;28.70;;;15.03;;
5042;SDS011;2540;50.928;6.856;2024-01-15T08:05:54;33.87;;;16.70;;
5042;SDS011;2540;50.928;6.856;2024-01-15T08:08:22;34.43;;;15.77;;
5042;SDS011;2540;50.928;6.856;2024-01-15T08:10:48;32.53;;;15.20;;
5042;SDS011;2540;50.928;6.856;2024-01-15T08:13:13;43.37;;;15.53;;
5042;SDS011;2540;50.928;6.856;2024-01-15T08:15:39;28.90;;;14.37;;
5042;SDS011;2540;50.928;6.856;2024-01-15T08:18:05;32.33;;;14.80;;
5042;SDS011;2540;50.928;6.856;2024-01-15T08:20:31;35.63;;;14.60;;
5042;SDS011;2540;50.928;6.856;2024-01-15T08:22:56;33.03;;;14.00;;
5042;SDS011;2540;50.928;6.856;2024-01-15T08:25:21;41.40;;;17.80;;
5042;SDS011;2540;50.928;6.856;2024-01-15T08:27:47;41.43;;;14.30;;
5042;SDS011;2540;50.928;6.856;2024-01-15T08:30:12;32.37;;;14.30;;
5042;SDS011;2540;50.928;6.856;2024-01-15T08:32:38;30.33;;;14.80;;
5042;SDS011;2540;50.928;6.856;2024-01-15T08:35:07;36.17;;;16.07;;
5042;SDS011;2540;50.928;6.856;2024-01-15T08:37:32;28.67;;;13.83;;
5042;SDS011;2540;50.928;6.856;2024-01-15T08:39:58;38.47;;;14.13;;
5042;SDS011;2540;50.928;6.856;2024-01-15T08:42:23;28.93;;;13.97;;
5042;SDS011;2540;50.928;6.856;2024-01-15T08:44:49;37.23;;;14.67;;
5042;SDS011;2540;50.928;6.856;2024-01-15T08:47:15;29.30;;;14.10;;
5042;SDS011;2540;50.928;6.856;2024-01-15T08:49:41;29.10;;;13.70;;
5042;SDS011;2540;50.928;6.856;2024-01-15T08:52:08;35.20;;;12.63;;
5042;SDS011;2540;50.928;6.856;2024-01-15T08:54:33;28.40;;;13.10;;
5042;SDS011;2540;50.928;6.856;2024-01-15T08:56:58;26.97;;;12.87;;
5042;SDS011;2540;50.928;6.856;2024-01-15T08:59:24;21.57;;;12.53;;
5042;SDS011;2540;50.928;6.856;2024-01-15T09:01:51;26.73;;;13.40;;
5042;SDS011;2540;50.928;6.856;2024-01-15T09:04:19;27.03;;;12.50;;
5042;SDS011;2540;50.928;6.856;2024-01-15T09:06:47;26.00;;;12.73;;
5042;SDS011;2540;50.928;6.856;2024-01-15T09:09:12;36.23;;;14.30;;
5042;SDS011;2540;50.928;6.856;2024-01-15T09:11:39;23.90;;;11.27;;
5042;SDS011;2540;50.928;6.856;2024-01-15T09:14:07;26.30;;;11.07;;
5042;SDS011;2540;50.928;6.856;2024-01-15T09:16:34;19.50;;;10.23;;
5042;SDS011;2540;50.928;6.856;2024-01-15T09:18:59;23.43;;;12.20;;
5042;SDS011;2540;50.928;6.856;2024-01-15T09:21:25;21.40;;;10.90;;
5042;SDS011;2540;50.928;6.856;2024-01-15T09:23:50;19.37;;;10.27;;
5042;SDS011;2540;50.928;6.856;2024-01-15T09:26:16;21.63;;;10.93;;
5042;SDS011;2540;50.928;6.856;2024-01-15T09:28:41;18.60;;;9.90;;
5042;SDS011;2540;50.928;6.856;2024-01-15T09:31:07;23.30;;;9.60;;
5042;SDS011;2540;50.928;6.856;2024-01-15T09:33:32;16.40;;;8.47;;
5042;SDS011;2540;50.928;6.856;2024-01-15T09:36:00;20.80;;;10.60;;
5042;SDS011;2540;50.928;6.856;2024-01-15T09:38:26;15.10;;;8.70;;
5042;SDS011;2540;50.928;6.856;2024-01-15T09:40:52;17.17;;;9.20;;
5042;SDS011;2540;50.928;6.856;2024-01-15T09:43:17;16.00;;;8.77;;
5042;SDS011;2540;50.928;6.856;2024-01-15T09:45:43;20.77;;;10.10;;
5042;SDS011;2540;50.928;6.856;2024-01-15T09:48:09;16.33;;;9.57;;
5042;SDS011;2540;50.928;6.856;2024-01-15T09:50:34;18.87;;;8.00;;
5042;SDS011;2540;50.928;6.856;2024-01-15T09:53:00;17.60;;;8.30;;
5042;SDS011;2540;50.928;6.856;2024-01-15T09:55:25;13.00;;;7.60;;
5042;SDS011;2540;50.928;6.856;2024-01-15T09:57:51;17.47;;;7.07;;
5042;SDS011;2540;50.928;6.856;2024-01-15T10:00:17;16.60;;;8.40;;
5042;SDS011;2540;50.928;6.856;2024-01-15T10:02:43;25.67;;;8.53;;
5042;SDS011;2540;50.928;6.856;2024-01-15T10:05:08;13.47;;;7.77;;
5042;SDS011;2540;50.928;6.856;2024-01-15T10:07:34;13.67;;;7.70;;
5042;SDS011;2540;50.928;6.856;2024-01-15T10:10:01;11.53;;;7.53;;
5042;SDS011;2540;50.928;6.856;2024-01-15T10:12:28;12.97;;;7.73;;
5042;SDS011;2540;50.928;6.856;2024-01-15T10:14:53;16.50;;;7.83;;
5042;SDS011;2540;50.928;6.856;2024-01-15T10:17:19;11.47;;;6.93;;
5042;SDS011;2540;50.928;6.856;2024-01-15T10:19:45;11.07;;;6.60;;
5042;SDS011;2540;50.928;6.856;2024-01-15T10:22:12;13.23;;;6.70;;
5042;SDS011;2540;50.928;6.856;2024-01-15T10:24:39;11.40;;;6.23;;
5042;SDS011;2540;50.928;6.856;2024-01-15T10:27:08;11.13;;;5.83;;
5042;SDS011;2540;50.928;6.856;2024-01-15T10:29:34;13.40;;;7.07;;
5042;SDS011;2540;50.928;6.856;2024-01-15T10:32:00;9.87;;;5.50;;
5042;SDS011;2540;50.928;6.856;2024-01-15T10:34:26;10.93;;;6.30;;
5042;SDS011;2540;50.928;6.856;2024-01-15T10:36:51;12.60;;;5.90;;
5042;SDS011;2540;50.928;6.856;2024-01-15T10:39:20;10.20;;;6.67;;
5042;SDS011;2540;50.928;6.856;2024-01-15T10:41:46;6.80;;;5.50;;
5042;SDS011;2540;50.928;6.856;2024-01-15T10:44:12;10.17;;;5.83;;
5042;SDS011;2540;50.928;6.856;2024-01-15T10:46:37;8.43;;;4.80;;
5042;SDS011;2540;50.928;6.856;2024-01-15T10:49:03;9.43;;;5.40;;
5042;SDS011;2540;50.928;6.856;2024-01-15T10:51:29;9.00;;;6.10;;
5042;SDS011;2540;50.928;6.856;2024-01-15T10:53:54;8.90;;;5.53;;
5042;SDS011;2540;50.928;6.856;2024-01-15T10:56:20;5.73;;;4.43;;
5042;SDS011;2540;50.928;6.856;2024-01-15T10:58:46;15.17;;;4.87;;
5042;SDS011;2540;50.928;6.856;2024-01-15T11:01:12;11.27;;;4.33;;
5042;SDS011;2540;50.928;6.856;2024-01-15T11:03:38;7.23;;;4.80;;
5042;SDS011;2540;50.928;6.856;2024-01-15T11:06:10;10.03;;;4.33;;
5042;SDS011;2540;50.928;6.856;2024-01-15T11:08:42;7.53;;;4.80;;
5042;SDS011;2540;50.928;6.856;2024-01-15T11:11:07;5.57;;;3.80;;
5042;SDS011;2540;50.928;6.856;2024-01-15T11:15:58;7.23;;;4.10;;
5042;SDS011;2540;50.928;6.856;2024-01-15T11:18:31;7.60;;;4.97;;
5042;SDS011;2540;50.928;6.856;2024-01-15T11:23:43;7.13;;;4.27;;
5042;SDS011;2540;50.928;6.856;2024-01-15T11:26:37;7.97;;;5.17;;
5042;SDS011;2540;50.928;6.856;2024-01-15T11:29:48;11.57;;;6.63;;
5042;SDS011;2540;50.928;6.856;2024-01-15T11:34:20;15.07;;;7.10;;
5042;SDS011;2540;50.928;6.856;2024-01-15T11:42:00;10.93;;;7.33;;
5042;SDS011;2540;50.928;6.856;2024-01-15T11:44:27;12.17;;;8.53;;
5042;SDS011;2540;50.928;6.856;2024-01-15T11:47:03;10.60;;;7.53;;
5042;SDS011;2540;50.928;6.856;2024-01-15T11:52:15;14.93;;;8.87;;
5042;SDS011;2540;50.928;6.856;2024-01-15T11:54:42;11.40;;;8.37;;
5042;SDS011;2540;50.928;6.856;2024-01-15T11:57:15;17.73;;;8.97;;
5042;SDS011;2540;50.928;6.856;2024-01-15T11:59:46;15.40;;;8.10;;
5042;SDS011;2540;50.928;6.856;2024-01-15T12:02:11;12.67;;;9.03;;
5042;SDS011;2540;50.928;6.856;2024-01-15T12:04:38;13.13;;;9.47;;
5042;SDS011;2540;50.928;6.856;2024-01-15T12:07:04;13.63;;;8.07;;
5042;SDS011;2540;50.928;6.856;2024-01-15T12:09:29;17.90;;;9.30;;
5042;SDS011;2540;50.928;6.856;2024-01-15T12:11:57;15.43;;;8.80;;
5042;SDS011;2540;50.928;6.856;2024-01-15T12:14:30;15.80;;;8.53;;
5042;SDS011;2540;50.928;6.856;2024-01-15T12:16:56;21.60;;;9.30;;
5042;SDS011;2540;50.928;6.856;2024-01-15T12:19:21;15.07;;;8.53;;
5042;SDS011;2540;50.928;6.856;2024-01-15T12:21:47;19.30;;;9.60;;
5042;SDS011;2540;50.928;6.856;2024-01-15T12:24:13;15.00;;;8.70;;
5042;SDS011;2540;50.928;6.856;2024-01-15T12:26:38;19.73;;;8.80;;
5042;SDS011;2540;50.928;6.856;2024-01-15T12:29:06;22.47;;;7.80;;
5042;SDS011;2540;50.928;6.856;2024-01-15T12:31:31;14.50;;;6.80;;
5042;SDS011;2540;50.928;6.856;2024-01-15T12:33:57;18.57;;;7.40;;
5042;SDS011;2540;50.928;6.856;2024-01-15T12:36:22;15.43;;;6.33;;
5042;SDS011;2540;50.928;6.856;2024-01-15T12:38:47;16.63;;;5.83;;
5042;SDS011;2540;50.928;6.856;2024-01-15T12:41:13;13.50;;;6.17;;
5042;SDS011;2540;50.928;6.856;2024-01-15T12:43:38;14.43;;;6.87;;
5042;SDS011;2540;50.928;6.856;2024-01-15T12:46:05;17.43;;;6.23;;
5042;SDS011;2540;50.928;6.856;2024-01-15T12:48:31;18.57;;;5.43;;
5042;SDS011;2540;50.928;6.856;2024-01-15T12:50:56;20.53;;;6.27;;
5042;SDS011;2540;50.928;6.856;2024-01-15T12:53:21;17.37;;;6.53;;
5042;SDS011;2540;50.928;6.856;2024-01-15T12:55:46;13.93;;;5.80;;
5042;SDS011;2540;50.928;6.856;2024-01-15T12:58:12;9.00;;;5.40;;
5042;SDS011;2540;50.928;6.856;2024-01-15T13:00:37;7.10;;;4.30;;
5042;SDS011;2540;50.928;6.856;2024-01-15T13:03:02;12.17;;;4.63;;
5042;SDS011;2540;50.928;6.856;2024-01-15T13:05:28;8.97;;;4.30;;
5042;SDS011;2540;50.928;6.856;2024-01-15T13:07:54;14.40;;;4.70;;
5042;SDS011;2540;50.928;6.856;2024-01-15T13:10:19;10.00;;;4.10;;
5042;SDS011;2540;50.928;6.856;2024-01-15T13:12:45;10.13;;;4.50;;
5042;SDS011;2540;50.928;6.856;2024-01-15T13:15:10;10.63;;;4.40;;
5042;SDS011;2540;50.928;6.856;2024-01-15T13:17:37;16.27;;;4.20;;
5042;SDS011;2540;50.928;6.856;2024-01-15T13:20:03;9.47;;;3.63;;
5042;SDS011;2540;50.928;6.856;2024-01-15T13:22:29;7.90;;;3.40;;
5042;SDS011;2540;50.928;6.856;2024-01-15T13:24:57;11.30;;;3.60;;
5042;SDS011;2540;50.928;6.856;2024-01-15T13:27:23;11.47;;;2.67;;
5042;SDS011;2540;50.928;6.856;2024-01-15T13:29:48;12.30;;;3.47;;
5042;SDS011;2540;50.928;6.856;2024-01-15T13:32:13;18.90;;;3.57;;
5042;SDS011;2540;50.928;6.856;2024-01-15T13:34:42;15.83;;;3.00;;
5042;SDS011;2540;50.928;6.856;2024-01-15T13:37:08;2.30;;;1.90;;
5042;SDS011;2540;50.928;6.856;2024-01-15T13:39:34;3.53;;;2.07;;
5042;SDS011;2540;50.928;6.856;2024-01-15T13:42:01;5.03;;;2.27;;
5042;SDS011;2540;50.928;6.856;2024-01-15T13:44:27;9.70;;;2.90;;
5042;SDS011;2540;50.928;6.856;2024-01-15T13:46:52;3.17;;;2.40;;
5042;SDS011;2540;50.928;6.856;2024-01-15T13:49:18;3.20;;;2.20;;
5042;SDS011;2540;50.928;6.856;2024-01-15T13:51:43;8.30;;;2.73;;
5042;SDS011;2540;50.928;6.856;2024-01-15T13:54:08;5.67;;;2.90;;
5042;SDS011;2540;50.928;6.856;2024-01-15T13:56:34;4.40;;;2.20;;
5042;SDS011;2540;50.928;6.856;2024-01-15T13:59:00;3.63;;;2.17;;
5042;SDS011;2540;50.928;6.856;2024-01-15T14:01:25;3.53;;;2.60;;
5042;SDS011;2540;50.928;6.856;2024-01-15T14:03:52;12.77;;;4.30;;
5042;SDS011;2540;50.928;6.856;2024-01-15T14:06:18;4.67;;;2.53;;
5042;SDS011;2540;50.928;6.856;2024-01-15T14:08:43;3.23;;;2.30;;
5042;SDS011;2540;50.928;6.856;2024-01-15T14:11:09;4.03;;;2.10;;
5042;SDS011;2540;50.928;6.856;2024-01-15T14:13:35;4.70;;;2.33;;
5042;SDS011;2540;50.928;6.856;2024-01-15T14:16:00;4.03;;;2.43;;
5042;SDS011;2540;50.928;6.856;2024-01-15T14:18:26;5.97;;;2.70;;
5042;SDS011;2540;50.928;6.856;2024-01-15T14:20:51;5.00;;;2.47;;
5042;SDS011;2540;50.928;6.856;2024-01-15T14:23:18;4.00;;;2.90;;
5042;SDS011;2540;50.928;6.856;2024-01-15T14:25:44;4.20;;;1.90;;
5042;SDS011;2540;50.928;6.856;2024-01-15T14:28:09;4.30;;;2.03;;
5042;SDS011;2540;50.928;6.856;2024-01-15T14:30:35;5.23;;;3.27;;
5042;SDS011;2540;50.928;6.856;2024-01-15T14:33:01;3.60;;;2.33;;
5042;SDS011;2540;50.928;6.856;2024-01-15T14:35:26;2.37;;;1.80;;
5042;SDS011;2540;50.928;6.856;2024-01-15T14:37:51;6.30;;;2.47;;
5042;SDS011;2540;50.928;6.856;2024-01-15T14:40:16;5.20;;;2.30;;
5042;SDS011;2540;50.928;6.856;2024-01-15T14:42:42;7.23;;;2.60;;
5042;SDS011;2540;50.928;6.856;2024-01-15T14:45:07;6.27;;;2.90;;
5042;SDS011;2540;50.928;6.856;2024-01-15T14:47:42;2.90;;;2.37;;
5042;SDS011;2540;50.928;6.856;2024-01-15T14:50:09;3.93;;;2.80;;
5042;SDS011;2540;50.928;6.856;2024-01-15T14:52:37;8.03;;;3.03;;
5042;SDS011;2540;50.928;6.856;2024-01-15T14:55:03;8.47;;;2.63;;
5042;SDS011;2540;50.928;6.856;2024-01-15T14:57:29;5.70;;;2.90;;
5042;SDS011;2540;50.928;6.856;2024-01-15T14:59:54;3.33;;;2.97;;
5042;SDS011;2540;50.928;6.856;2024-01-15T15:02:19;3.33;;;3.00;;